sensor_id;sensor_type;location;lat;lon;timestamp;pressure;altitude;pressure_sealevel;temperature
65600;BMP280;52272;-29.642;-50.764;2022-10-22T00:02:16;100428.81;;;21.96
65600;BMP280;52272;-29.642;-50.764;2022-10-22T00:04:49;100442.09;;;22.44
65600;BMP280;52272;-29.642;-50.764;2022-10-22T00:07:21;100442.81;;;22.00
65600;BMP280;52272;-29.642;-50.764;2022-10-22T00:09:52;100452.66;;;20.92
65600;BMP280;52272;-29.642;-50.764;2022-10-22T00:12:23;100457.25;;;21.76
65600;BMP280;52272;-29.642;-50.764;2022-10-22T00:14:53;100458.22;;;21.92
65600;BMP280;52272;-29.642;-50.764;2022-10-22T00:17:24;100467.50;;;21.47
65600;BMP280;52272;-29.642;-50.764;2022-10-22T00:19:54;100465.94;;;21.51
65600;BMP280;52272;-29.642;-50.764;2022-10-22T00:22:25;100474.31;;;21.53
65600;BMP280;52272;-29.642;-50.764;2022-10-22T00:24:55;100471.69;;;21.29
65600;BMP280;52272;-29.642;-50.764;2022-10-22T00:27:26;100468.81;;;21.40
65600;BMP280;52272;-29.642;-50.764;2022-10-22T00:29:55;100470.53;;;21.93
65600;BMP280;52272;-29.642;-50.764;2022-10-22T00:32:26;100472.75;;;22.39
65600;BMP280;52272;-29.642;-50.764;2022-10-22T00:35:10;100475.91;;;21.43
65600;BMP280;52272;-29.642;-50.764;2022-10-22T00:37:41;100476.53;;;21.12
65600;BMP280;52272;-29.642;-50.764;2022-10-22T00:40:11;100480.09;;;21.44
65600;BMP280;52272;-29.642;-50.764;2022-10-22T00:42:41;100483.47;;;21.87
65600;BMP280;52272;-29.642;-50.764;2022-10-22T00:45:17;100491.75;;;22.39
65600;BMP280;52272;-29.642;-50.764;2022-10-22T00:47:51;100496.66;;;23.10
65600;BMP280;52272;-29.642;-50.764;2022-10-22T00:52:59;100492.56;;;23.17
65600;BMP280;52272;-29.642;-50.764;2022-10-22T00:55:32;100475.47;;;22.26
65600;BMP280;52272;-29.642;-50.764;2022-10-22T00:58:05;100478.44;;;23.05
65600;BMP280;52272;-29.642;-50.764;2022-10-22T01:00:36;100485.53;;;23.21
65600;BMP280;52272;-29.642;-50.764;2022-10-22T01:03:06;100481.97;;;23.26
65600;BMP280;52272;-29.642;-50.764;2022-10-22T01:05:57;100487.31;;;23.86
65600;BMP280;52272;-29.642;-50.764;2022-10-22T01:16:54;100508.22;;;23.70
65600;BMP280;52272;-29.642;-50.764;2022-10-22T01:22:11;100511.91;;;23.47
65600;BMP280;52272;-29.642;-50.764;2022-10-22T01:30:28;100517.63;;;22.84
65600;BMP280;52272;-29.642;-50.764;2022-10-22T01:33:03;100524.84;;;23.07
65600;BMP280;52272;-29.642;-50.764;2022-10-22T01:35:37;100526.41;;;22.77
65600;BMP280;52272;-29.642;-50.764;2022-10-22T01:38:16;100526.88;;;22.50
65600;BMP280;52272;-29.642;-50.764;2022-10-22T01:40:48;100524.81;;;22.82
65600;BMP280;52272;-29.642;-50.764;2022-10-22T01:43:21;100529.03;;;22.95
65600;BMP280;52272;-29.642;-50.764;2022-10-22T01:45:55;100541.06;;;22.56
65600;BMP280;52272;-29.642;-50.764;2022-10-22T01:54:51;100553.97;;;22.68
65600;BMP280;52272;-29.642;-50.764;2022-10-22T01:57:35;100550.63;;;22.31
65600;BMP280;52272;-29.642;-50.764;2022-10-22T02:00:13;100562.66;;;22.92
65600;BMP280;52272;-29.642;-50.764;2022-10-22T02:05:48;100559.81;;;22.72
65600;BMP280;52272;-29.642;-50.764;2022-10-22T02:08:26;100567.06;;;23.08
65600;BMP280;52272;-29.642;-50.764;2022-10-22T02:10:59;100563.59;;;23.08
65600;BMP280;52272;-29.642;-50.764;2022-10-22T02:13:35;100563.28;;;22.85
65600;BMP280;52272;-29.642;-50.764;2022-10-22T02:16:09;100560.16;;;23.20
65600;BMP280;52272;-29.642;-50.764;2022-10-22T02:18:44;100562.53;;;23.37
65600;BMP280;52272;-29.642;-50.764;2022-10-22T02:21:18;100559.94;;;23.44
65600;BMP280;52272;-29.642;-50.764;2022-10-22T02:23:48;100562.22;;;23.66
65600;BMP280;52272;-29.642;-50.764;2022-10-22T02:26:24;100560.09;;;24.06
65600;BMP280;52272;-29.642;-50.764;2022-10-22T02:29:19;100553.69;;;23.83
65600;BMP280;52272;-29.642;-50.764;2022-10-22T02:31:52;100568.53;;;23.82
65600;BMP280;52272;-29.642;-50.764;2022-10-22T02:34:27;100561.56;;;23.73
65600;BMP280;52272;-29.642;-50.764;2022-10-22T02:37:01;100555.91;;;23.58
65600;BMP280;52272;-29.642;-50.764;2022-10-22T02:39:32;100562.97;;;23.41
65600;BMP280;52272;-29.642;-50.764;2022-10-22T02:42:03;100556.81;;;23.40
65600;BMP280;52272;-29.642;-50.764;2022-10-22T02:44:33;100551.31;;;23.66
65600;BMP280;52272;-29.642;-50.764;2022-10-22T02:47:13;100550.25;;;23.69
65600;BMP280;52272;-29.642;-50.764;2022-10-22T02:49:45;100539.81;;;23.73
65600;BMP280;52272;-29.642;-50.764;2022-10-22T02:52:15;100539.16;;;24.21
65600;BMP280;52272;-29.642;-50.764;2022-10-22T02:54:46;100531.47;;;24.12
65600;BMP280;52272;-29.642;-50.764;2022-10-22T02:57:17;100523.16;;;23.77
65600;BMP280;52272;-29.642;-50.764;2022-10-22T02:59:48;100509.63;;;23.51
65600;BMP280;52272;-29.642;-50.764;2022-10-22T03:02:18;100529.56;;;23.66
65600;BMP280;52272;-29.642;-50.764;2022-10-22T03:04:48;100527.84;;;23.76
65600;BMP280;52272;-29.642;-50.764;2022-10-22T03:07:19;100526.88;;;23.53
65600;BMP280;52272;-29.642;-50.764;2022-10-22T03:09:49;100531.41;;;23.71
65600;BMP280;52272;-29.642;-50.764;2022-10-22T03:12:19;100535.41;;;23.70
65600;BMP280;52272;-29.642;-50.764;2022-10-22T03:14:49;100532.47;;;23.68
65600;BMP280;52272;-29.642;-50.764;2022-10-22T03:17:19;100537.50;;;23.98
65600;BMP280;52272;-29.642;-50.764;2022-10-22T03:19:49;100538.75;;;24.17
65600;BMP280;52272;-29.642;-50.764;2022-10-22T03:22:25;100537.25;;;23.75
65600;BMP280;52272;-29.642;-50.764;2022-10-22T03:25:03;100539.91;;;23.68
65600;BMP280;52272;-29.642;-50.764;2022-10-22T03:27:38;100546.16;;;24.09
65600;BMP280;52272;-29.642;-50.764;2022-10-22T03:30:10;100543.88;;;24.20
65600;BMP280;52272;-29.642;-50.764;2022-10-22T03:32:44;100532.13;;;24.05
65600;BMP280;52272;-29.642;-50.764;2022-10-22T03:35:14;100540.28;;;24.25
65600;BMP280;52272;-29.642;-50.764;2022-10-22T03:37:45;100539.16;;;24.21
65600;BMP280;52272;-29.642;-50.764;2022-10-22T03:40:16;100536.50;;;24.08
65600;BMP280;52272;-29.642;-50.764;2022-10-22T03:42:47;100546.78;;;23.82
65600;BMP280;52272;-29.642;-50.764;2022-10-22T03:45:18;100547.09;;;23.78
65600;BMP280;52272;-29.642;-50.764;2022-10-22T03:47:48;100540.66;;;23.89
65600;BMP280;52272;-29.642;-50.764;2022-10-22T03:50:18;100547.22;;;23.73
65600;BMP280;52272;-29.642;-50.764;2022-10-22T03:52:49;100543.38;;;24.02
65600;BMP280;52272;-29.642;-50.764;2022-10-22T03:55:19;100538.22;;;24.39
65600;BMP280;52272;-29.642;-50.764;2022-10-22T03:57:50;100534.84;;;24.25
65600;BMP280;52272;-29.642;-50.764;2022-10-22T04:00:19;100534.44;;;24.01
65600;BMP280;52272;-29.642;-50.764;2022-10-22T04:02:49;100538.22;;;24.39
65600;BMP280;52272;-29.642;-50.764;2022-10-22T04:05:20;100543.53;;;24.44
65600;BMP280;52272;-29.642;-50.764;2022-10-22T04:07:49;100543.63;;;24.31
65600;BMP280;52272;-29.642;-50.764;2022-10-22T04:10:20;100550.13;;;24.28
65600;BMP280;52272;-29.642;-50.764;2022-10-22T04:12:50;100545.38;;;24.70
65600;BMP280;52272;-29.642;-50.764;2022-10-22T04:15:23;100538.63;;;24.43
65600;BMP280;52272;-29.642;-50.764;2022-10-22T04:17:56;100535.19;;;24.22
65600;BMP280;52272;-29.642;-50.764;2022-10-22T04:20:26;100536.56;;;24.56
65600;BMP280;52272;-29.642;-50.764;2022-10-22T04:22:56;100526.75;;;24.53
65600;BMP280;52272;-29.642;-50.764;2022-10-22T04:25:27;100523.91;;;24.18
65600;BMP280;52272;-29.642;-50.764;2022-10-22T04:27:57;100525.41;;;24.47
65600;BMP280;52272;-29.642;-50.764;2022-10-22T04:30:28;100524.53;;;24.80
65600;BMP280;52272;-29.642;-50.764;2022-10-22T04:32:57;100523.28;;;24.53
65600;BMP280;52272;-29.642;-50.764;2022-10-22T04:35:28;100523.94;;;24.46
65600;BMP280;52272;-29.642;-50.764;2022-10-22T04:37:59;100527.81;;;24.58
65600;BMP280;52272;-29.642;-50.764;2022-10-22T04:40:28;100522.78;;;24.62
65600;BMP280;52272;-29.642;-50.764;2022-10-22T04:42:59;100531.59;;;24.27
65600;BMP280;52272;-29.642;-50.764;2022-10-22T04:45:29;100523.41;;;24.06
65600;BMP280;52272;-29.642;-50.764;2022-10-22T04:47:59;100525.22;;;24.04
65600;BMP280;52272;-29.642;-50.764;2022-10-22T04:50:29;100525.63;;;24.08
65600;BMP280;52272;-29.642;-50.764;2022-10-22T04:52:59;100531.56;;;23.99
65600;BMP280;52272;-29.642;-50.764;2022-10-22T04:55:30;100530.53;;;24.09
65600;BMP280;52272;-29.642;-50.764;2022-10-22T04:58:00;100526.94;;;24.14
65600;BMP280;52272;-29.642;-50.764;2022-10-22T05:00:31;100528.56;;;24.10
65600;BMP280;52272;-29.642;-50.764;2022-10-22T05:03:00;100536.16;;;24.11
65600;BMP280;52272;-29.642;-50.764;2022-10-22T05:05:31;100542.13;;;24.51
65600;BMP280;52272;-29.642;-50.764;2022-10-22T05:08:01;100536.00;;;24.30
65600;BMP280;52272;-29.642;-50.764;2022-10-22T05:10:32;100534.66;;;24.03
65600;BMP280;52272;-29.642;-50.764;2022-10-22T05:13:02;100538.97;;;24.39
65600;BMP280;52272;-29.642;-50.764;2022-10-22T05:15:33;100545.06;;;24.53
65600;BMP280;52272;-29.642;-50.764;2022-10-22T05:18:03;100546.53;;;24.33
65600;BMP280;52272;-29.642;-50.764;2022-10-22T05:20:33;100543.53;;;24.03
65600;BMP280;52272;-29.642;-50.764;2022-10-22T05:23:03;100548.88;;;24.09
65600;BMP280;52272;-29.642;-50.764;2022-10-22T05:25:38;100537.81;;;23.94
65600;BMP280;52272;-29.642;-50.764;2022-10-22T05:28:08;100557.81;;;23.63
65600;BMP280;52272;-29.642;-50.764;2022-10-22T05:30:38;100560.06;;;23.72
65600;BMP280;52272;-29.642;-50.764;2022-10-22T05:33:10;100548.88;;;23.76
65600;BMP280;52272;-29.642;-50.764;2022-10-22T05:35:41;100557.09;;;23.37
65600;BMP280;52272;-29.642;-50.764;2022-10-22T05:38:14;100560.38;;;23.09
65600;BMP280;52272;-29.642;-50.764;2022-10-22T05:40:45;100554.41;;;22.98
65600;BMP280;52272;-29.642;-50.764;2022-10-22T05:43:14;100555.13;;;22.98
65600;BMP280;52272;-29.642;-50.764;2022-10-22T05:45:44;100555.13;;;22.85
65600;BMP280;52272;-29.642;-50.764;2022-10-22T05:48:14;100563.72;;;23.15
65600;BMP280;52272;-29.642;-50.764;2022-10-22T05:50:45;100552.19;;;23.48
65600;BMP280;52272;-29.642;-50.764;2022-10-22T05:53:19;100551.59;;;23.29
65600;BMP280;52272;-29.642;-50.764;2022-10-22T05:55:49;100561.53;;;23.14
65600;BMP280;52272;-29.642;-50.764;2022-10-22T05:58:20;100563.41;;;23.06
65600;BMP280;52272;-29.642;-50.764;2022-10-22T06:00:50;100562.47;;;23.16
65600;BMP280;52272;-29.642;-50.764;2022-10-22T06:03:20;100573.13;;;22.88
65600;BMP280;52272;-29.642;-50.764;2022-10-22T06:05:53;100567.06;;;22.95
65600;BMP280;52272;-29.642;-50.764;2022-10-22T06:08:23;100572.03;;;23.43
65600;BMP280;52272;-29.642;-50.764;2022-10-22T06:10:53;100561.63;;;23.21
65600;BMP280;52272;-29.642;-50.764;2022-10-22T06:13:23;100566.84;;;22.93
65600;BMP280;52272;-29.642;-50.764;2022-10-22T06:15:53;100570.41;;;23.14
65600;BMP280;52272;-29.642;-50.764;2022-10-22T06:18:24;100560.16;;;23.20
65600;BMP280;52272;-29.642;-50.764;2022-10-22T06:21:06;100567.47;;;23.12
65600;BMP280;52272;-29.642;-50.764;2022-10-22T06:23:37;100559.75;;;23.03
65600;BMP280;52272;-29.642;-50.764;2022-10-22T06:26:08;100553.97;;;23.33
65600;BMP280;52272;-29.642;-50.764;2022-10-22T06:28:40;100560.78;;;22.87
65600;BMP280;52272;-29.642;-50.764;2022-10-22T06:31:09;100569.31;;;22.66
65600;BMP280;52272;-29.642;-50.764;2022-10-22T06:33:39;100559.50;;;22.76
65600;BMP280;52272;-29.642;-50.764;2022-10-22T06:36:14;100563.69;;;22.77
65600;BMP280;52272;-29.642;-50.764;2022-10-22T06:38:44;100566.72;;;22.42
65600;BMP280;52272;-29.642;-50.764;2022-10-22T06:41:15;100564.44;;;22.46
65600;BMP280;52272;-29.642;-50.764;2022-10-22T06:43:46;100570.31;;;23.20
65600;BMP280;52272;-29.642;-50.764;2022-10-22T06:46:19;100569.34;;;23.04
65600;BMP280;52272;-29.642;-50.764;2022-10-22T06:48:55;100571.44;;;22.98
65600;BMP280;52272;-29.642;-50.764;2022-10-22T06:51:26;100572.28;;;23.06
65600;BMP280;52272;-29.642;-50.764;2022-10-22T06:53:57;100569.16;;;23.41
65600;BMP280;52272;-29.642;-50.764;2022-10-22T06:56:28;100571.03;;;23.20
65600;BMP280;52272;-29.642;-50.764;2022-10-22T06:58:58;100577.38;;;22.97
65600;BMP280;52272;-29.642;-50.764;2022-10-22T07:01:30;100579.41;;;23.35
65600;BMP280;52272;-29.642;-50.764;2022-10-22T07:04:01;100584.50;;;23.52
65600;BMP280;52272;-29.642;-50.764;2022-10-22T07:06:32;100580.22;;;23.30
65600;BMP280;52272;-29.642;-50.764;2022-10-22T07:09:03;100591.53;;;22.95
65600;BMP280;52272;-29.642;-50.764;2022-10-22T07:11:39;100589.13;;;23.05
65600;BMP280;52272;-29.642;-50.764;2022-10-22T07:14:11;100584.81;;;22.96
65600;BMP280;52272;-29.642;-50.764;2022-10-22T07:16:41;100585.56;;;22.53
65600;BMP280;52272;-29.642;-50.764;2022-10-22T07:19:14;100597.09;;;22.72
65600;BMP280;52272;-29.642;-50.764;2022-10-22T07:21:44;100598.03;;;22.74
65600;BMP280;52272;-29.642;-50.764;2022-10-22T07:24:14;100599.25;;;22.60
65600;BMP280;52272;-29.642;-50.764;2022-10-22T07:26:44;100609.16;;;22.58
65600;BMP280;52272;-29.642;-50.764;2022-10-22T07:29:15;100605.47;;;22.74
65600;BMP280;52272;-29.642;-50.764;2022-10-22T07:31:48;100611.16;;;22.88
65600;BMP280;52272;-29.642;-50.764;2022-10-22T07:34:18;100594.13;;;22.44
65600;BMP280;52272;-29.642;-50.764;2022-10-22T07:36:48;100600.81;;;22.56
65600;BMP280;52272;-29.642;-50.764;2022-10-22T07:39:18;100602.50;;;22.59
65600;BMP280;52272;-29.642;-50.764;2022-10-22T07:41:48;100601.53;;;22.25
65600;BMP280;52272;-29.642;-50.764;2022-10-22T07:44:19;100606.56;;;22.34
65600;BMP280;52272;-29.642;-50.764;2022-10-22T07:46:50;100609.59;;;22.62
65600;BMP280;52272;-29.642;-50.764;2022-10-22T07:49:20;100613.44;;;22.85
65600;BMP280;52272;-29.642;-50.764;2022-10-22T07:51:51;100616.47;;;22.81
65600;BMP280;52272;-29.642;-50.764;2022-10-22T07:54:22;100619.44;;;22.65
65600;BMP280;52272;-29.642;-50.764;2022-10-22T07:56:53;100617.63;;;22.98
65600;BMP280;52272;-29.642;-50.764;2022-10-22T07:59:24;100629.03;;;22.66
65600;BMP280;52272;-29.642;-50.764;2022-10-22T08:01:55;100624.91;;;22.28
65600;BMP280;52272;-29.642;-50.764;2022-10-22T08:04:26;100630.97;;;22.83
65600;BMP280;52272;-29.642;-50.764;2022-10-22T08:06:57;100638.53;;;23.03
65600;BMP280;52272;-29.642;-50.764;2022-10-22T08:09:27;100636.00;;;22.92
65600;BMP280;52272;-29.642;-50.764;2022-10-22T08:11:58;100648.56;;;22.64
65600;BMP280;52272;-29.642;-50.764;2022-10-22T08:14:28;100643.56;;;22.68
65600;BMP280;52272;-29.642;-50.764;2022-10-22T08:17:00;100641.19;;;22.46
65600;BMP280;52272;-29.642;-50.764;2022-10-22T08:19:30;100659.09;;;22.36
65600;BMP280;52272;-29.642;-50.764;2022-10-22T08:22:02;100659.38;;;22.51
65600;BMP280;52272;-29.642;-50.764;2022-10-22T08:24:32;100660.69;;;22.45
65600;BMP280;52272;-29.642;-50.764;2022-10-22T08:27:03;100670.28;;;22.33
65600;BMP280;52272;-29.642;-50.764;2022-10-22T08:29:34;100672.31;;;22.27
65600;BMP280;52272;-29.642;-50.764;2022-10-22T08:32:05;100664.84;;;22.33
65600;BMP280;52272;-29.642;-50.764;2022-10-22T08:34:35;100672.97;;;22.14
65600;BMP280;52272;-29.642;-50.764;2022-10-22T08:37:06;100678.81;;;22.00
65600;BMP280;52272;-29.642;-50.764;2022-10-22T08:39:37;100676.13;;;22.37
65600;BMP280;52272;-29.642;-50.764;2022-10-22T08:48:45;100678.72;;;22.61
65600;BMP280;52272;-29.642;-50.764;2022-10-22T08:51:43;100684.31;;;22.68
65600;BMP280;52272;-29.642;-50.764;2022-10-22T08:59:55;100681.47;;;22.92
65600;BMP280;52272;-29.642;-50.764;2022-10-22T09:02:35;100689.09;;;22.93
65600;BMP280;52272;-29.642;-50.764;2022-10-22T09:07:57;100699.56;;;23.02
65600;BMP280;52272;-29.642;-50.764;2022-10-22T09:10:32;100704.34;;;22.96
65600;BMP280;52272;-29.642;-50.764;2022-10-22T09:13:03;100710.81;;;22.93
65600;BMP280;52272;-29.642;-50.764;2022-10-22T09:15:34;100719.88;;;23.14
65600;BMP280;52272;-29.642;-50.764;2022-10-22T09:21:38;100719.50;;;22.92
65600;BMP280;52272;-29.642;-50.764;2022-10-22T09:27:10;100729.03;;;23.43
65600;BMP280;52272;-29.642;-50.764;2022-10-22T09:29:42;100737.75;;;23.23
65600;BMP280;52272;-29.642;-50.764;2022-10-22T09:32:15;100733.22;;;23.31
65600;BMP280;52272;-29.642;-50.764;2022-10-22T09:34:47;100751.72;;;23.45
65600;BMP280;52272;-29.642;-50.764;2022-10-22T09:37:25;100744.81;;;23.57
65600;BMP280;52272;-29.642;-50.764;2022-10-22T09:39:56;100752.56;;;23.53
65600;BMP280;52272;-29.642;-50.764;2022-10-22T09:42:32;100752.19;;;23.88
65600;BMP280;52272;-29.642;-50.764;2022-10-22T09:45:03;100760.03;;;24.05
65600;BMP280;52272;-29.642;-50.764;2022-10-22T09:47:39;100767.44;;;23.91
65600;BMP280;52272;-29.642;-50.764;2022-10-22T09:50:40;100770.78;;;23.97
65600;BMP280;52272;-29.642;-50.764;2022-10-22T09:53:20;100784.13;;;24.47
65600;BMP280;52272;-29.642;-50.764;2022-10-22T09:55:53;100788.34;;;24.35
65600;BMP280;52272;-29.642;-50.764;2022-10-22T09:58:27;100783.03;;;24.16
65600;BMP280;52272;-29.642;-50.764;2022-10-22T10:00:58;100789.91;;;24.77
65600;BMP280;52272;-29.642;-50.764;2022-10-22T10:03:31;100800.13;;;24.84
65600;BMP280;52272;-29.642;-50.764;2022-10-22T10:06:03;100805.84;;;24.73
65600;BMP280;52272;-29.642;-50.764;2022-10-22T10:08:34;100813.19;;;24.65
65600;BMP280;52272;-29.642;-50.764;2022-10-22T10:11:16;100814.50;;;25.05
65600;BMP280;52272;-29.642;-50.764;2022-10-22T10:16:39;100835.78;;;24.86
65600;BMP280;52272;-29.642;-50.764;2022-10-22T10:28:32;100868.22;;;26.41
65600;BMP280;52272;-29.642;-50.764;2022-10-22T10:31:20;100875.75;;;26.56
65600;BMP280;52272;-29.642;-50.764;2022-10-22T10:46:05;100897.34;;;25.76
65600;BMP280;52272;-29.642;-50.764;2022-10-22T10:48:49;100902.41;;;25.18
65600;BMP280;52272;-29.642;-50.764;2022-10-22T10:54:44;100901.66;;;25.30
65600;BMP280;52272;-29.642;-50.764;2022-10-22T11:00:09;100907.69;;;25.16
65600;BMP280;52272;-29.642;-50.764;2022-10-22T11:06:02;100908.91;;;25.69
65600;BMP280;52272;-29.642;-50.764;2022-10-22T11:08:42;100915.06;;;26.18
65600;BMP280;52272;-29.642;-50.764;2022-10-22T11:11:18;100914.66;;;26.92
65600;BMP280;52272;-29.642;-50.764;2022-10-22T11:16:34;100921.97;;;26.97
65600;BMP280;52272;-29.642;-50.764;2022-10-22T11:19:24;100918.91;;;26.57
65600;BMP280;52272;-29.642;-50.764;2022-10-22T11:22:40;100922.31;;;27.01
65600;BMP280;52272;-29.642;-50.764;2022-10-22T11:25:41;100924.81;;;26.76
65600;BMP280;52272;-29.642;-50.764;2022-10-22T11:28:32;100914.91;;;24.93
65600;BMP280;52272;-29.642;-50.764;2022-10-22T11:31:11;100918.38;;;24.68
65600;BMP280;52272;-29.642;-50.764;2022-10-22T11:36:13;100905.75;;;25.04
65600;BMP280;52272;-29.642;-50.764;2022-10-22T11:38:44;100915.22;;;25.23
65600;BMP280;52272;-29.642;-50.764;2022-10-22T11:41:22;100913.34;;;25.79
65600;BMP280;52272;-29.642;-50.764;2022-10-22T11:46:38;100914.84;;;25.06
65600;BMP280;52272;-29.642;-50.764;2022-10-22T11:51:44;100919.34;;;25.57
65600;BMP280;52272;-29.642;-50.764;2022-10-22T11:59:56;100940.88;;;26.80
65600;BMP280;52272;-29.642;-50.764;2022-10-22T12:02:43;100944.47;;;26.67
65600;BMP280;52272;-29.642;-50.764;2022-10-22T12:05:33;100953.00;;;26.21
65600;BMP280;52272;-29.642;-50.764;2022-10-22T12:08:24;100941.38;;;27.43
65600;BMP280;52272;-29.642;-50.764;2022-10-22T12:11:03;100950.81;;;28.17
65600;BMP280;52272;-29.642;-50.764;2022-10-22T12:19:42;100961.56;;;29.25
65600;BMP280;52272;-29.642;-50.764;2022-10-22T12:22:39;100970.47;;;29.58
65600;BMP280;52272;-29.642;-50.764;2022-10-22T12:25:29;100962.38;;;29.18
65600;BMP280;52272;-29.642;-50.764;2022-10-22T12:28:04;100971.56;;;29.14
65600;BMP280;52272;-29.642;-50.764;2022-10-22T12:30:39;100988.94;;;28.77
65600;BMP280;52272;-29.642;-50.764;2022-10-22T12:33:22;100988.31;;;26.54
65600;BMP280;52272;-29.642;-50.764;2022-10-22T12:35:54;100994.28;;;26.18
65600;BMP280;52272;-29.642;-50.764;2022-10-22T12:38:26;100994.19;;;26.30
65600;BMP280;52272;-29.642;-50.764;2022-10-22T12:40:56;100998.72;;;26.56
65600;BMP280;52272;-29.642;-50.764;2022-10-22T12:43:30;100994.38;;;26.68
65600;BMP280;52272;-29.642;-50.764;2022-10-22T12:46:01;100996.44;;;26.12
65600;BMP280;52272;-29.642;-50.764;2022-10-22T12:48:39;100990.19;;;26.67
65600;BMP280;52272;-29.642;-50.764;2022-10-22T12:51:18;100997.91;;;28.08
65600;BMP280;52272;-29.642;-50.764;2022-10-22T12:53:57;100992.34;;;28.53
65600;BMP280;52272;-29.642;-50.764;2022-10-22T12:56:32;100996.84;;;28.73
65600;BMP280;52272;-29.642;-50.764;2022-10-22T12:59:08;100998.53;;;28.61
65600;BMP280;52272;-29.642;-50.764;2022-10-22T13:01:43;100999.31;;;28.86
65600;BMP280;52272;-29.642;-50.764;2022-10-22T13:09:56;101001.91;;;30.22
65600;BMP280;52272;-29.642;-50.764;2022-10-22T13:12:34;101004.88;;;31.13
65600;BMP280;52272;-29.642;-50.764;2022-10-22T13:18:17;101008.28;;;31.94
65600;BMP280;52272;-29.642;-50.764;2022-10-22T13:21:00;101008.09;;;32.58
65600;BMP280;52272;-29.642;-50.764;2022-10-22T13:23:32;101005.13;;;32.75
65600;BMP280;52272;-29.642;-50.764;2022-10-22T13:26:15;101019.91;;;32.89
65600;BMP280;52272;-29.642;-50.764;2022-10-22T13:28:54;101017.63;;;33.16
65600;BMP280;52272;-29.642;-50.764;2022-10-22T13:31:31;101014.06;;;32.36
65600;BMP280;52272;-29.642;-50.764;2022-10-22T13:34:04;101019.28;;;31.76
65600;BMP280;52272;-29.642;-50.764;2022-10-22T13:36:40;101018.88;;;31.34
65600;BMP280;52272;-29.642;-50.764;2022-10-22T13:39:21;101012.16;;;30.22
65600;BMP280;52272;-29.642;-50.764;2022-10-22T13:41:51;101018.50;;;29.91
65600;BMP280;52272;-29.642;-50.764;2022-10-22T13:44:21;101014.50;;;29.92
65600;BMP280;52272;-29.642;-50.764;2022-10-22T13:46:52;101010.38;;;30.00
65600;BMP280;52272;-29.642;-50.764;2022-10-22T13:49:24;101019.91;;;29.99
65600;BMP280;52272;-29.642;-50.764;2022-10-22T13:51:55;101011.22;;;29.44
65600;BMP280;52272;-29.642;-50.764;2022-10-22T13:54:25;101008.22;;;29.33
65600;BMP280;52272;-29.642;-50.764;2022-10-22T13:56:55;101007.84;;;29.95
65600;BMP280;52272;-29.642;-50.764;2022-10-22T13:59:25;101012.31;;;30.84
65600;BMP280;52272;-29.642;-50.764;2022-10-22T14:01:56;101021.41;;;31.58
65600;BMP280;52272;-29.642;-50.764;2022-10-22T14:04:26;101009.81;;;31.41
65600;BMP280;52272;-29.642;-50.764;2022-10-22T14:06:56;101012.88;;;30.83
65600;BMP280;52272;-29.642;-50.764;2022-10-22T14:09:31;101005.53;;;30.68
65600;BMP280;52272;-29.642;-50.764;2022-10-22T14:12:12;101002.41;;;31.07
65600;BMP280;52272;-29.642;-50.764;2022-10-22T14:14:42;100997.91;;;30.76
65600;BMP280;52272;-29.642;-50.764;2022-10-22T14:17:14;101011.56;;;31.10
65600;BMP280;52272;-29.642;-50.764;2022-10-22T14:19:47;100999.34;;;31.39
65600;BMP280;52272;-29.642;-50.764;2022-10-22T14:22:18;100998.03;;;31.40
65600;BMP280;52272;-29.642;-50.764;2022-10-22T14:24:49;100995.22;;;31.21
65600;BMP280;52272;-29.642;-50.764;2022-10-22T14:27:20;100992.56;;;30.52
65600;BMP280;52272;-29.642;-50.764;2022-10-22T14:29:50;100994.16;;;31.43
65600;BMP280;52272;-29.642;-50.764;2022-10-22T14:32:27;100992.44;;;31.57
65600;BMP280;52272;-29.642;-50.764;2022-10-22T14:34:58;100990.19;;;31.27
65600;BMP280;52272;-29.642;-50.764;2022-10-22T14:37:29;100993.34;;;31.88
65600;BMP280;52272;-29.642;-50.764;2022-10-22T14:40:00;101003.69;;;33.05
65600;BMP280;52272;-29.642;-50.764;2022-10-22T14:42:40;100992.25;;;33.71
65600;BMP280;52272;-29.642;-50.764;2022-10-22T14:45:22;100988.50;;;34.31
65600;BMP280;52272;-29.642;-50.764;2022-10-22T14:47:53;100995.06;;;35.76
65600;BMP280;52272;-29.642;-50.764;2022-10-22T14:50:24;100990.09;;;36.38
65600;BMP280;52272;-29.642;-50.764;2022-10-22T14:52:54;100983.22;;;36.93
65600;BMP280;52272;-29.642;-50.764;2022-10-22T14:55:27;100990.56;;;36.46
65600;BMP280;52272;-29.642;-50.764;2022-10-22T14:57:57;100984.94;;;36.32
65600;BMP280;52272;-29.642;-50.764;2022-10-22T15:00:28;100980.56;;;34.94
65600;BMP280;52272;-29.642;-50.764;2022-10-22T15:02:58;100976.44;;;33.62
65600;BMP280;52272;-29.642;-50.764;2022-10-22T15:05:32;100972.00;;;35.13
65600;BMP280;52272;-29.642;-50.764;2022-10-22T15:08:01;100979.84;;;35.53
65600;BMP280;52272;-29.642;-50.764;2022-10-22T15:10:32;100966.34;;;35.47
65600;BMP280;52272;-29.642;-50.764;2022-10-22T15:13:02;100965.03;;;34.32
65600;BMP280;52272;-29.642;-50.764;2022-10-22T15:15:32;100965.63;;;33.87
65600;BMP280;52272;-29.642;-50.764;2022-10-22T15:18:07;100962.63;;;34.26
65600;BMP280;52272;-29.642;-50.764;2022-10-22T15:20:37;100967.13;;;35.72
65600;BMP280;52272;-29.642;-50.764;2022-10-22T15:23:10;100971.47;;;36.27
65600;BMP280;52272;-29.642;-50.764;2022-10-22T15:25:42;100962.03;;;34.96
65600;BMP280;52272;-29.642;-50.764;2022-10-22T15:28:12;100964.94;;;34.53
65600;BMP280;52272;-29.642;-50.764;2022-10-22T15:30:43;100956.91;;;34.02
65600;BMP280;52272;-29.642;-50.764;2022-10-22T15:33:12;100956.00;;;32.83
65600;BMP280;52272;-29.642;-50.764;2022-10-22T15:35:43;100970.69;;;33.37
65600;BMP280;52272;-29.642;-50.764;2022-10-22T15:38:13;100971.47;;;33.49
65600;BMP280;52272;-29.642;-50.764;2022-10-22T15:40:43;100968.22;;;33.52
65600;BMP280;52272;-29.642;-50.764;2022-10-22T15:43:13;100973.31;;;33.56
65600;BMP280;52272;-29.642;-50.764;2022-10-22T15:45:47;100981.53;;;32.93
65600;BMP280;52272;-29.642;-50.764;2022-10-22T15:48:25;100976.38;;;32.99
65600;BMP280;52272;-29.642;-50.764;2022-10-22T15:50:55;100971.06;;;33.96